sensor_id;sensor_type;location;lat;lon;timestamp;temperature;humidity
5802;DHT22;2927;49.366;8.530;2023-04-09T00:01:04;9.70;4.90
5802;DHT22;2927;49.366;8.530;2023-04-09T00:03:30;9.70;1.00
5802;DHT22;2927;49.366;8.530;2023-04-09T00:05:56;9.60;99.90
5802;DHT22;2927;49.366;8.530;2023-04-09T00:08:21;9.60;99.90
5802;DHT22;2927;49.366;8.530;2023-04-09T00:10:51;9.60;99.90
5802;DHT22;2927;49.366;8.530;2023-04-09T00:13:17;9.60;99.90
5802;DHT22;2927;49.366;8.530;2023-04-09T00:15:44;9.50;1.00
5802;DHT22;2927;49.366;8.530;2023-04-09T00:18:10;9.50;1.00
5802;DHT22;2927;49.366;8.530;2023-04-09T00:20:35;9.50;1.00
5802;DHT22;2927;49.366;8.530;2023-04-09T00:23:01;9.50;1.00
5802;DHT22;2927;49.366;8.530;2023-04-09T00:25:26;9.50;1.00
5802;DHT22;2927;49.366;8.530;2023-04-09T00:27:53;9.40;1.00
5802;DHT22;2927;49.366;8.530;2023-04-09T00:30:19;9.40;1.00
5802;DHT22;2927;49.366;8.530;2023-04-09T00:32:44;9.40;1.00
5802;DHT22;2927;49.366;8.530;2023-04-09T00:35:10;9.40;1.00
5802;DHT22;2927;49.366;8.530;2023-04-09T00:37:36;9.40;1.00
5802;DHT22;2927;49.366;8.530;2023-04-09T00:40:02;9.40;1.00
5802;DHT22;2927;49.366;8.530;2023-04-09T00:42:32;9.40;1.00
5802;DHT22;2927;49.366;8.530;2023-04-09T00:44:58;9.40;1.00
5802;DHT22;2927;49.366;8.530;2023-04-09T00:47:23;9.40;1.00
5802;DHT22;2927;49.366;8.530;2023-04-09T00:49:49;9.30;1.00
5802;DHT22;2927;49.366;8.530;2023-04-09T00:52:15;9.30;1.00
5802;DHT22;2927;49.366;8.530;2023-04-09T00:54:40;9.30;1.00
5802;DHT22;2927;49.366;8.530;2023-04-09T00:57:06;9.30;1.00
5802;DHT22;2927;49.366;8.530;2023-04-09T00:59:32;9.30;1.00
5802;DHT22;2927;49.366;8.530;2023-04-09T01:01:57;9.20;71.60
5802;DHT22;2927;49.366;8.530;2023-04-09T01:04:23;9.20;99.90
5802;DHT22;2927;49.366;8.530;2023-04-09T01:07:01;9.20;99.90
5802;DHT22;2927;49.366;8.530;2023-04-09T01:12:29;9.20;99.90
5802;DHT22;2927;49.366;8.530;2023-04-09T01:15:13;9.10;99.90
5802;DHT22;2927;49.366;8.530;2023-04-09T01:17:44;9.10;1.00
5802;DHT22;2927;49.366;8.530;2023-04-09T01:20:13;9.10;1.00
5802;DHT22;2927;49.366;8.530;2023-04-09T01:25:52;9.00;1.00
5802;DHT22;2927;49.366;8.530;2023-04-09T01:28:26;9.00;1.00
5802;DHT22;2927;49.366;8.530;2023-04-09T01:31:01;9.00;1.00
5802;DHT22;2927;49.366;8.530;2023-04-09T01:33:29;9.00;1.00
5802;DHT22;2927;49.366;8.530;2023-04-09T01:35:56;8.90;1.00
5802;DHT22;2927;49.366;8.530;2023-04-09T01:38:24;8.90;1.00
5802;DHT22;2927;49.366;8.530;2023-04-09T01:40:51;8.90;1.00
5802;DHT22;2927;49.366;8.530;2023-04-09T01:43:17;8.90;89.80
5802;DHT22;2927;49.366;8.530;2023-04-09T01:45:44;8.90;1.00
5802;DHT22;2927;49.366;8.530;2023-04-09T01:48:12;8.90;1.00
5802;DHT22;2927;49.366;8.530;2023-04-09T01:50:39;8.90;1.00
5802;DHT22;2927;49.366;8.530;2023-04-09T01:53:04;8.90;1.00
5802;DHT22;2927;49.366;8.530;2023-04-09T01:55:30;8.80;48.30
5802;DHT22;2927;49.366;8.530;2023-04-09T01:57:56;8.80;4.80
5802;DHT22;2927;49.366;8.530;2023-04-09T02:00:23;8.80;99.90
5802;DHT22;2927;49.366;8.530;2023-04-09T02:02:59;8.70;99.90
5802;DHT22;2927;49.366;8.530;2023-04-09T02:05:28;8.80;99.90
5802;DHT22;2927;49.366;8.530;2023-04-09T02:07:55;8.70;99.90
5802;DHT22;2927;49.366;8.530;2023-04-09T02:10:25;8.70;1.00
5802;DHT22;2927;49.366;8.530;2023-04-09T02:12:52;8.70;1.00
5802;DHT22;2927;49.366;8.530;2023-04-09T02:15:19;8.70;1.00
5802;DHT22;2927;49.366;8.530;2023-04-09T02:17:45;8.70;1.00
5802;DHT22;2927;49.366;8.530;2023-04-09T02:20:15;8.70;1.00
5802;DHT22;2927;49.366;8.530;2023-04-09T02:22:41;8.70;99.90
5802;DHT22;2927;49.366;8.530;2023-04-09T02:25:07;8.60;99.90
5802;DHT22;2927;49.366;8.530;2023-04-09T02:27:33;8.60;99.90
5802;DHT22;2927;49.366;8.530;2023-04-09T02:29:58;8.60;1.00
5802;DHT22;2927;49.366;8.530;2023-04-09T02:32:24;8.50;60.90
5802;DHT22;2927;49.366;8.530;2023-04-09T02:34:49;8.60;99.90
5802;DHT22;2927;49.366;8.530;2023-04-09T02:37:15;8.50;1.00
5802;DHT22;2927;49.366;8.530;2023-04-09T02:39:40;8.40;1.00
5802;DHT22;2927;49.366;8.530;2023-04-09T02:42:06;8.40;1.00
5802;DHT22;2927;49.366;8.530;2023-04-09T02:44:32;8.40;1.00
5802;DHT22;2927;49.366;8.530;2023-04-09T02:46:57;8.30;1.00
5802;DHT22;2927;49.366;8.530;2023-04-09T02:49:23;8.30;99.90
5802;DHT22;2927;49.366;8.530;2023-04-09T02:51:48;8.30;27.10
5802;DHT22;2927;49.366;8.530;2023-04-09T02:54:14;8.30;1.00
5802;DHT22;2927;49.366;8.530;2023-04-09T02:56:40;8.20;1.00
5802;DHT22;2927;49.366;8.530;2023-04-09T02:59:05;8.30;99.90
5802;DHT22;2927;49.366;8.530;2023-04-09T03:01:31;8.40;1.00
5802;DHT22;2927;49.366;8.530;2023-04-09T03:03:56;8.40;99.90
5802;DHT22;2927;49.366;8.530;2023-04-09T03:06:22;8.30;1.00
5802;DHT22;2927;49.366;8.530;2023-04-09T03:08:47;8.30;1.00
5802;DHT22;2927;49.366;8.530;2023-04-09T03:11:13;8.30;1.00
5802;DHT22;2927;49.366;8.530;2023-04-09T03:13:38;8.30;1.00
5802;DHT22;2927;49.366;8.530;2023-04-09T03:16:04;8.30;99.90
5802;DHT22;2927;49.366;8.530;2023-04-09T03:18:30;8.30;1.00
5802;DHT22;2927;49.366;8.530;2023-04-09T03:20:55;8.30;99.90
5802;DHT22;2927;49.366;8.530;2023-04-09T03:23:21;8.30;99.90
5802;DHT22;2927;49.366;8.530;2023-04-09T03:25:46;8.30;1.00
5802;DHT22;2927;49.366;8.530;2023-04-09T03:28:12;8.30;1.00
5802;DHT22;2927;49.366;8.530;2023-04-09T03:30:37;8.30;1.00
5802;DHT22;2927;49.366;8.530;2023-04-09T03:33:03;8.40;1.00
5802;DHT22;2927;49.366;8.530;2023-04-09T03:35:28;8.40;1.00
5802;DHT22;2927;49.366;8.530;2023-04-09T03:37:54;8.40;1.00
5802;DHT22;2927;49.366;8.530;2023-04-09T03:40:19;8.30;1.00
5802;DHT22;2927;49.366;8.530;2023-04-09T03:42:45;8.20;1.00
5802;DHT22;2927;49.366;8.530;2023-04-09T03:45:10;8.20;99.90
5802;DHT22;2927;49.366;8.530;2023-04-09T03:47:36;8.20;1.00
5802;DHT22;2927;49.366;8.530;2023-04-09T03:50:02;8.20;99.90
5802;DHT22;2927;49.366;8.530;2023-04-09T03:52:27;8.20;99.90
5802;DHT22;2927;49.366;8.530;2023-04-09T03:54:53;8.20;1.00
5802;DHT22;2927;49.366;8.530;2023-04-09T03:57:18;8.20;11.50
5802;DHT22;2927;49.366;8.530;2023-04-09T03:59:44;8.20;99.90
5802;DHT22;2927;49.366;8.530;2023-04-09T04:02:09;8.20;99.90
5802;DHT22;2927;49.366;8.530;2023-04-09T04:04:35;8.20;1.00
5802;DHT22;2927;49.366;8.530;2023-04-09T04:07:02;8.20;1.00
5802;DHT22;2927;49.366;8.530;2023-04-09T04:09:27;8.20;1.00
5802;DHT22;2927;49.366;8.530;2023-04-09T04:11:53;8.20;99.90
5802;DHT22;2927;49.366;8.530;2023-04-09T04:14:20;8.10;99.90
5802;DHT22;2927;49.366;8.530;2023-04-09T04:16:46;8.20;1.00
5802;DHT22;2927;49.366;8.530;2023-04-09T04:19:11;8.20;1.00
5802;DHT22;2927;49.366;8.530;2023-04-09T04:21:37;8.10;1.00
5802;DHT22;2927;49.366;8.530;2023-04-09T04:24:02;8.10;1.00
5802;DHT22;2927;49.366;8.530;2023-04-09T04:26:28;8.10;99.90
5802;DHT22;2927;49.366;8.530;2023-04-09T04:28:53;8.10;80.50
5802;DHT22;2927;49.366;8.530;2023-04-09T04:31:19;8.10;78.80
5802;DHT22;2927;49.366;8.530;2023-04-09T04:33:44;8.10;99.90
5802;DHT22;2927;49.366;8.530;2023-04-09T04:36:11;8.00;1.00
5802;DHT22;2927;49.366;8.530;2023-04-09T04:38:38;8.10;1.00
5802;DHT22;2927;49.366;8.530;2023-04-09T04:41:04;8.00;99.90
5802;DHT22;2927;49.366;8.530;2023-04-09T04:43:30;8.00;99.90
5802;DHT22;2927;49.366;8.530;2023-04-09T04:45:56;8.00;1.00
5802;DHT22;2927;49.366;8.530;2023-04-09T04:48:22;8.00;1.00
5802;DHT22;2927;49.366;8.530;2023-04-09T04:50:54;8.00;1.00
5802;DHT22;2927;49.366;8.530;2023-04-09T04:53:20;8.00;1.00
5802;DHT22;2927;49.366;8.530;2023-04-09T04:55:45;8.00;1.00
5802;DHT22;2927;49.366;8.530;2023-04-09T04:58:11;8.00;1.00
5802;DHT22;2927;49.366;8.530;2023-04-09T05:00:37;8.00;1.00
5802;DHT22;2927;49.366;8.530;2023-04-09T05:03:02;8.00;1.00
5802;DHT22;2927;49.366;8.530;2023-04-09T05:05:28;8.00;99.90
5802;DHT22;2927;49.366;8.530;2023-04-09T05:07:53;7.90;1.00
5802;DHT22;2927;49.366;8.530;2023-04-09T05:10:19;7.90;1.00
5802;DHT22;2927;49.366;8.530;2023-04-09T05:12:44;8.00;99.90
5802;DHT22;2927;49.366;8.530;2023-04-09T05:15:10;8.00;1.00
5802;DHT22;2927;49.366;8.530;2023-04-09T05:17:36;8.00;1.00
5802;DHT22;2927;49.366;8.530;2023-04-09T05:20:01;8.00;1.00
5802;DHT22;2927;49.366;8.530;2023-04-09T05:22:27;8.00;99.90
5802;DHT22;2927;49.366;8.530;2023-04-09T05:24:52;8.10;99.90
5802;DHT22;2927;49.366;8.530;2023-04-09T05:27:18;8.10;1.00
5802;DHT22;2927;49.366;8.530;2023-04-09T05:29:45;8.10;1.00
5802;DHT22;2927;49.366;8.530;2023-04-09T05:32:10;8.20;99.90
5802;DHT22;2927;49.366;8.530;2023-04-09T05:34:36;8.20;1.00
5802;DHT22;2927;49.366;8.530;2023-04-09T05:37:01;8.30;1.00
5802;DHT22;2927;49.366;8.530;2023-04-09T05:39:27;8.30;1.00
5802;DHT22;2927;49.366;8.530;2023-04-09T05:41:52;8.40;99.90
5802;DHT22;2927;49.366;8.530;2023-04-09T05:44:18;8.40;1.00
5802;DHT22;2927;49.366;8.530;2023-04-09T05:46:44;8.50;1.00
5802;DHT22;2927;49.366;8.530;2023-04-09T05:49:10;8.50;99.90
5802;DHT22;2927;49.366;8.530;2023-04-09T05:51:35;8.60;1.00
5802;DHT22;2927;49.366;8.530;2023-04-09T05:54:01;8.60;1.00
5802;DHT22;2927;49.366;8.530;2023-04-09T05:56:27;8.60;1.00
5802;DHT22;2927;49.366;8.530;2023-04-09T05:58:53;8.70;1.00
5802;DHT22;2927;49.366;8.530;2023-04-09T06:01:19;8.70;99.90
5802;DHT22;2927;49.366;8.530;2023-04-09T06:03:45;8.80;1.00
5802;DHT22;2927;49.366;8.530;2023-04-09T06:06:12;8.80;1.00
5802;DHT22;2927;49.366;8.530;2023-04-09T06:08:37;8.80;1.00
5802;DHT22;2927;49.366;8.530;2023-04-09T06:11:07;8.90;1.00
5802;DHT22;2927;49.366;8.530;2023-04-09T06:13:33;9.00;99.90
5802;DHT22;2927;49.366;8.530;2023-04-09T06:15:58;9.00;1.00
5802;DHT22;2927;49.366;8.530;2023-04-09T06:18:24;9.00;46.10
5802;DHT22;2927;49.366;8.530;2023-04-09T06:20:49;9.00;1.00
5802;DHT22;2927;49.366;8.530;2023-04-09T06:23:15;9.10;99.90
5802;DHT22;2927;49.366;8.530;2023-04-09T06:25:41;9.20;1.00
5802;DHT22;2927;49.366;8.530;2023-04-09T06:28:06;9.20;99.90
5802;DHT22;2927;49.366;8.530;2023-04-09T06:30:32;9.20;1.00
5802;DHT22;2927;49.366;8.530;2023-04-09T06:32:57;9.30;1.00
5802;DHT22;2927;49.366;8.530;2023-04-09T06:35:23;9.50;1.00
5802;DHT22;2927;49.366;8.530;2023-04-09T06:37:48;9.80;1.00
5802;DHT22;2927;49.366;8.530;2023-04-09T06:40:14;10.00;99.90
5802;DHT22;2927;49.366;8.530;2023-04-09T06:42:40;10.30;1.00
5802;DHT22;2927;49.366;8.530;2023-04-09T06:45:06;10.60;1.00
5802;DHT22;2927;49.366;8.530;2023-04-09T06:47:33;10.90;99.90
5802;DHT22;2927;49.366;8.530;2023-04-09T06:49:59;11.40;99.90
5802;DHT22;2927;49.366;8.530;2023-04-09T06:52:25;12.30;1.00
5802;DHT22;2927;49.366;8.530;2023-04-09T06:54:50;12.50;1.00
5802;DHT22;2927;49.366;8.530;2023-04-09T06:57:16;12.40;99.90
5802;DHT22;2927;49.366;8.530;2023-04-09T06:59:41;12.30;1.00
5802;DHT22;2927;49.366;8.530;2023-04-09T07:02:08;12.40;1.00
5802;DHT22;2927;49.366;8.530;2023-04-09T07:04:33;12.60;99.90
5802;DHT22;2927;49.366;8.530;2023-04-09T07:06:59;12.60;99.90
5802;DHT22;2927;49.366;8.530;2023-04-09T07:09:25;12.60;99.90
5802;DHT22;2927;49.366;8.530;2023-04-09T07:11:50;12.50;1.00
5802;DHT22;2927;49.366;8.530;2023-04-09T07:14:16;12.80;1.00
5802;DHT22;2927;49.366;8.530;2023-04-09T07:16:41;13.10;99.90
5802;DHT22;2927;49.366;8.530;2023-04-09T07:19:08;13.50;65.00
5802;DHT22;2927;49.366;8.530;2023-04-09T07:21:34;13.80;1.00
5802;DHT22;2927;49.366;8.530;2023-04-09T07:23:59;14.30;1.00
5802;DHT22;2927;49.366;8.530;2023-04-09T07:26:25;14.90;1.00
5802;DHT22;2927;49.366;8.530;2023-04-09T07:28:51;15.60;1.00
5802;DHT22;2927;49.366;8.530;2023-04-09T07:31:16;15.50;99.90
5802;DHT22;2927;49.366;8.530;2023-04-09T07:33:42;16.50;99.90
5802;DHT22;2927;49.366;8.530;2023-04-09T07:36:07;16.30;99.90
5802;DHT22;2927;49.366;8.530;2023-04-09T07:38:33;16.40;99.90
5802;DHT22;2927;49.366;8.530;2023-04-09T07:40:59;15.80;99.90
5802;DHT22;2927;49.366;8.530;2023-04-09T07:43:24;15.70;99.90
5802;DHT22;2927;49.366;8.530;2023-04-09T07:45:50;15.60;99.90
5802;DHT22;2927;49.366;8.530;2023-04-09T07:48:16;15.20;99.90
5802;DHT22;2927;49.366;8.530;2023-04-09T07:50:42;15.30;99.90
5802;DHT22;2927;49.366;8.530;2023-04-09T07:53:09;15.50;99.90
5802;DHT22;2927;49.366;8.530;2023-04-09T07:55:36;16.90;99.90
5802;DHT22;2927;49.366;8.530;2023-04-09T07:58:01;17.30;99.90
5802;DHT22;2927;49.366;8.530;2023-04-09T08:00:28;17.50;99.90
5802;DHT22;2927;49.366;8.530;2023-04-09T08:02:53;18.50;99.90
5802;DHT22;2927;49.366;8.530;2023-04-09T08:05:19;19.20;99.90
5802;DHT22;2927;49.366;8.530;2023-04-09T08:07:45;20.20;71.60
5802;DHT22;2927;49.366;8.530;2023-04-09T08:10:10;20.10;37.30
5802;DHT22;2927;49.366;8.530;2023-04-09T08:12:39;19.70;25.50
5802;DHT22;2927;49.366;8.530;2023-04-09T08:15:05;19.70;28.80
5802;DHT22;2927;49.366;8.530;2023-04-09T08:17:31;20.90;17.10
5802;DHT22;2927;49.366;8.530;2023-04-09T08:19:57;21.70;1.00
5802;DHT22;2927;49.366;8.530;2023-04-09T08:22:22;21.80;1.00
5802;DHT22;2927;49.366;8.530;2023-04-09T08:24:51;21.80;1.00
5802;DHT22;2927;49.366;8.530;2023-04-09T08:27:18;22.30;1.00
5802;DHT22;2927;49.366;8.530;2023-04-09T08:29:43;22.90;1.00
5802;DHT22;2927;49.366;8.530;2023-04-09T08:32:09;21.00;1.00
5802;DHT22;2927;49.366;8.530;2023-04-09T08:34:35;19.80;1.00
5802;DHT22;2927;49.366;8.530;2023-04-09T08:37:01;20.80;1.00
5802;DHT22;2927;49.366;8.530;2023-04-09T08:39:27;21.40;1.00
5802;DHT22;2927;49.366;8.530;2023-04-09T08:41:57;21.70;1.00
5802;DHT22;2927;49.366;8.530;2023-04-09T08:44:28;20.50;1.00
5802;DHT22;2927;49.366;8.530;2023-04-09T08:46:54;19.90;1.00
5802;DHT22;2927;49.366;8.530;2023-04-09T08:49:20;20.60;1.00
5802;DHT22;2927;49.366;8.530;2023-04-09T08:51:47;20.90;1.00
5802;DHT22;2927;49.366;8.530;2023-04-09T08:54:15;20.00;1.00
5802;DHT22;2927;49.366;8.530;2023-04-09T08:56:45;20.40;1.00
5802;DHT22;2927;49.366;8.530;2023-04-09T08:59:14;21.20;1.00
5802;DHT22;2927;49.366;8.530;2023-04-09T09:01:41;21.40;1.00
5802;DHT22;2927;49.366;8.530;2023-04-09T09:04:07;21.60;1.00
5802;DHT22;2927;49.366;8.530;2023-04-09T09:06:39;21.50;1.00
5802;DHT22;2927;49.366;8.530;2023-04-09T09:09:10;21.70;1.00
5802;DHT22;2927;49.366;8.530;2023-04-09T09:11:38;19.80;1.00
5802;DHT22;2927;49.366;8.530;2023-04-09T09:14:05;17.90;1.00
5802;DHT22;2927;49.366;8.530;2023-04-09T09:16:32;16.70;1.00
5802;DHT22;2927;49.366;8.530;2023-04-09T09:18:59;17.10;1.00
5802;DHT22;2927;49.366;8.530;2023-04-09T09:21:26;16.80;1.00
5802;DHT22;2927;49.366;8.530;2023-04-09T09:23:52;16.60;5.30
5802;DHT22;2927;49.366;8.530;2023-04-09T09:26:26;16.40;22.40
5802;DHT22;2927;49.366;8.530;2023-04-09T09:28:53;17.90;19.20
5802;DHT22;2927;49.366;8.530;2023-04-09T09:31:20;20.60;1.00
5802;DHT22;2927;49.366;8.530;2023-04-09T09:33:46;21.50;1.00
5802;DHT22;2927;49.366;8.530;2023-04-09T09:36:13;19.90;1.00
5802;DHT22;2927;49.366;8.530;2023-04-09T09:38:54;19.70;1.00
5802;DHT22;2927;49.366;8.530;2023-04-09T09:41:20;20.10;1.00
5802;DHT22;2927;49.366;8.530;2023-04-09T09:43:46;19.50;1.00
5802;DHT22;2927;49.366;8.530;2023-04-09T09:46:12;19.20;1.00
5802;DHT22;2927;49.366;8.530;2023-04-09T09:48:39;19.00;1.00
5802;DHT22;2927;49.366;8.530;2023-04-09T09:51:12;19.30;1.00
5802;DHT22;2927;49.366;8.530;2023-04-09T09:53:40;18.50;1.00
5802;DHT22;2927;49.366;8.530;2023-04-09T09:56:08;16.90;1.00
5802;DHT22;2927;49.366;8.530;2023-04-09T09:58:40;16.20;1.00
5802;DHT22;2927;49.366;8.530;2023-04-09T10:01:11;15.60;1.00
5802;DHT22;2927;49.366;8.530;2023-04-09T10:03:38;15.20;1.00
5802;DHT22;2927;49.366;8.530;2023-04-09T10:06:05;14.80;1.00
5802;DHT22;2927;49.366;8.530;2023-04-09T10:08:32;14.80;1.00
5802;DHT22;2927;49.366;8.530;2023-04-09T10:11:00;15.00;1.00
5802;DHT22;2927;49.366;8.530;2023-04-09T10:13:34;15.10;1.00
5802;DHT22;2927;49.366;8.530;2023-04-09T10:16:00;15.30;1.00
5802;DHT22;2927;49.366;8.530;2023-04-09T10:18:27;15.20;1.00
5802;DHT22;2927;49.366;8.530;2023-04-09T10:20:58;15.20;1.00
5802;DHT22;2927;49.366;8.530;2023-04-09T10:23:37;15.40;1.00
5802;DHT22;2927;49.366;8.530;2023-04-09T10:26:04;15.20;1.00
5802;DHT22;2927;49.366;8.530;2023-04-09T10:28:30;14.90;1.00
5802;DHT22;2927;49.366;8.530;2023-04-09T10:30:57;14.80;1.00
5802;DHT22;2927;49.366;8.530;2023-04-09T10:33:24;14.80;1.00
5802;DHT22;2927;49.366;8.530;2023-04-09T10:35:51;15.00;1.00
5802;DHT22;2927;49.366;8.530;2023-04-09T10:38:32;15.10;1.00
5802;DHT22;2927;49.366;8.530;2023-04-09T10:40:58;15.50;1.00
5802;DHT22;2927;49.366;8.530;2023-04-09T10:43:23;15.40;1.00
5802;DHT22;2927;49.366;8.530;2023-04-09T10:45:49;15.30;1.00
5802;DHT22;2927;49.366;8.530;2023-04-09T10:48:19;15.40;1.00
5802;DHT22;2927;49.366;8.530;2023-04-09T10:50:49;15.10;1.00
5802;DHT22;2927;49.366;8.530;2023-04-09T10:53:33;15.00;1.00
5802;DHT22;2927;49.366;8.530;2023-04-09T10:55:58;14.90;1.00
5802;DHT22;2927;49.366;8.530;2023-04-09T10:58:25;15.10;1.00
5802;DHT22;2927;49.366;8.530;2023-04-09T11:00:53;15.00;1.00
5802;DHT22;2927;49.366;8.530;2023-04-09T11:03:25;14.90;1.00
5802;DHT22;2927;49.366;8.530;2023-04-09T11:06:00;15.10;1.00
5802;DHT22;2927;49.366;8.530;2023-04-09T11:08:30;15.30;1.00
5802;DHT22;2927;49.366;8.530;2023-04-09T11:10:56;15.40;1.00
5802;DHT22;2927;49.366;8.530;2023-04-09T11:13:24;15.00;1.00
5802;DHT22;2927;49.366;8.530;2023-04-09T11:15:49;15.00;1.00
5802;DHT22;2927;49.366;8.530;2023-04-09T11:18:23;15.10;1.00
5802;DHT22;2927;49.366;8.530;2023-04-09T11:20:49;15.10;1.00
5802;DHT22;2927;49.366;8.530;2023-04-09T11:23:18;15.20;1.00
5802;DHT22;2927;49.366;8.530;2023-04-09T11:25:48;15.50;1.00
5802;DHT22;2927;49.366;8.530;2023-04-09T11:28:13;16.10;1.00
5802;DHT22;2927;49.366;8.530;2023-04-09T11:30:39;16.10;1.00
5802;DHT22;2927;49.366;8.530;2023-04-09T11:33:05;15.90;1.00
5802;DHT22;2927;49.366;8.530;2023-04-09T11:35:33;15.60;1.00
5802;DHT22;2927;49.366;8.530;2023-04-09T11:37:59;15.40;1.00
5802;DHT22;2927;49.366;8.530;2023-04-09T11:40:26;15.10;1.00
5802;DHT22;2927;49.366;8.530;2023-04-09T11:42:54;14.80;1.00
5802;DHT22;2927;49.366;8.530;2023-04-09T11:45:27;14.70;1.00
5802;DHT22;2927;49.366;8.530;2023-04-09T11:47:53;14.30;1.00
5802;DHT22;2927;49.366;8.530;2023-04-09T11:50:20;14.40;1.00
5802;DHT22;2927;49.366;8.530;2023-04-09T11:52:46;14.50;1.00
5802;DHT22;2927;49.366;8.530;2023-04-09T11:55:22;14.70;1.00
5802;DHT22;2927;49.366;8.530;2023-04-09T11:57:50;14.90;1.00
5802;DHT22;2927;49.366;8.530;2023-04-09T12:00:17;15.00;1.00
5802;DHT22;2927;49.366;8.530;2023-04-09T12:02:44;15.20;1.00
5802;DHT22;2927;49.366;8.530;2023-04-09T12:05:23;15.40;1.00
5802;DHT22;2927;49.366;8.530;2023-04-09T12:07:50;15.50;1.00
5802;DHT22;2927;49.366;8.530;2023-04-09T12:10:16;15.80;1.00
5802;DHT22;2927;49.366;8.530;2023-04-09T12:12:44;15.80;1.00
5802;DHT22;2927;49.366;8.530;2023-04-09T12:15:20;15.70;1.00
5802;DHT22;2927;49.366;8.530;2023-04-09T12:17:48;15.80;1.00
5802;DHT22;2927;49.366;8.530;2023-04-09T12:20:22;15.70;1.00
5802;DHT22;2927;49.366;8.530;2023-04-09T12:22:50;15.40;1.00
5802;DHT22;2927;49.366;8.530;2023-04-09T12:25:15;15.30;1.00
5802;DHT22;2927;49.366;8.530;2023-04-09T12:27:41;15.60;1.00
5802;DHT22;2927;49.366;8.530;2023-04-09T12:30:07;15.40;1.00
5802;DHT22;2927;49.366;8.530;2023-04-09T12:32:32;15.40;1.00
5802;DHT22;2927;49.366;8.530;2023-04-09T12:34:58;15.50;1.00
5802;DHT22;2927;49.366;8.530;2023-04-09T12:37:23;15.60;1.00
5802;DHT22;2927;49.366;8.530;2023-04-09T12:39:49;15.70;1.00
5802;DHT22;2927;49.366;8.530;2023-04-09T12:42:15;15.90;1.00
5802;DHT22;2927;49.366;8.530;2023-04-09T12:44:40;16.00;1.00
5802;DHT22;2927;49.366;8.530;2023-04-09T12:47:06;16.10;1.00
5802;DHT22;2927;49.366;8.530;2023-04-09T12:49:32;16.50;1.00
5802;DHT22;2927;49.366;8.530;2023-04-09T12:51:57;16.40;1.00
5802;DHT22;2927;49.366;8.530;2023-04-09T12:54:23;16.30;1.00
5802;DHT22;2927;49.366;8.530;2023-04-09T12:56:48;16.00;1.00
5802;DHT22;2927;49.366;8.530;2023-04-09T12:59:14;16.20;1.00
5802;DHT22;2927;49.366;8.530;2023-04-09T13:01:39;16.40;1.00
5802;DHT22;2927;49.366;8.530;2023-04-09T13:04:05;16.20;1.00
5802;DHT22;2927;49.366;8.530;2023-04-09T13:06:30;16.00;1.00
5802;DHT22;2927;49.366;8.530;2023-04-09T13:08:56;15.80;1.00
5802;DHT22;2927;49.366;8.530;2023-04-09T13:11:22;15.50;1.00
5802;DHT22;2927;49.366;8.530;2023-04-09T13:13:47;15.40;1.00
5802;DHT22;2927;49.366;8.530;2023-04-09T13:16:13;15.30;1.00
5802;DHT22;2927;49.366;8.530;2023-04-09T13:18:38;15.40;1.00
5802;DHT22;2927;49.366;8.530;2023-04-09T13:21:04;15.50;1.00
5802;DHT22;2927;49.366;8.530;2023-04-09T13:23:30;15.50;1.00
5802;DHT22;2927;49.366;8.530;2023-04-09T13:25:55;15.50;1.00
5802;DHT22;2927;49.366;8.530;2023-04-09T13:28:21;15.90;1.00
5802;DHT22;2927;49.366;8.530;2023-04-09T13:30:47;16.10;1.00
5802;DHT22;2927;49.366;8.530;2023-04-09T13:33:12;16.30;1.00
5802;DHT22;2927;49.366;8.530;2023-04-09T13:35:38;16.60;1.00
5802;DHT22;2927;49.366;8.530;2023-04-09T13:38:03;16.60;1.00
5802;DHT22;2927;49.366;8.530;2023-04-09T13:40:29;16.00;1.00
5802;DHT22;2927;49.366;8.530;2023-04-09T13:42:54;15.90;1.00
5802;DHT22;2927;49.366;8.530;2023-04-09T13:45:20;15.70;1.00
5802;DHT22;2927;49.366;8.530;2023-04-09T13:47:48;15.50;1.00
5802;DHT22;2927;49.366;8.530;2023-04-09T13:50:13;15.20;1.00
5802;DHT22;2927;49.366;8.530;2023-04-09T13:52:39;15.10;1.00
5802;DHT22;2927;49.366;8.530;2023-04-09T13:55:06;15.10;1.00
5802;DHT22;2927;49.366;8.530;2023-04-09T13:57:31;14.90;1.00
5802;DHT22;2927;49.366;8.530;2023-04-09T13:59:57;14.90;1.00
5802;DHT22;2927;49.366;8.530;2023-04-09T14:02:26;14.90;1.00
5802;DHT22;2927;49.366;8.530;2023-04-09T14:04:52;15.00;1.00
5802;DHT22;2927;49.366;8.530;2023-04-09T14:07:18;15.00;1.00
5802;DHT22;2927;49.366;8.530;2023-04-09T14:09:43;15.20;1.00
5802;DHT22;2927;49.366;8.530;2023-04-09T14:12:09;15.40;1.00
5802;DHT22;2927;49.366;8.530;2023-04-09T14:14:35;15.70;1.00
5802;DHT22;2927;49.366;8.530;2023-04-09T14:17:00;16.10;1.00
5802;DHT22;2927;49.366;8.530;2023-04-09T14:19:26;16.50;1.00
5802;DHT22;2927;49.366;8.530;2023-04-09T14:21:52;16.60;1.00
5802;DHT22;2927;49.366;8.530;2023-04-09T14:24:17;16.60;1.00
5802;DHT22;2927;49.366;8.530;2023-04-09T14:26:44;16.60;1.00
5802;DHT22;2927;49.366;8.530;2023-04-09T14:29:10;16.60;1.00
5802;DHT22;2927;49.366;8.530;2023-04-09T14:31:35;16.50;1.00
5802;DHT22;2927;49.366;8.530;2023-04-09T14:34:01;16.50;1.00
5802;DHT22;2927;49.366;8.530;2023-04-09T14:36:26;16.40;1.00
5802;DHT22;2927;49.366;8.530;2023-04-09T14:38:52;16.20;1.00
5802;DHT22;2927;49.366;8.530;2023-04-09T14:41:17;16.20;1.00
5802;DHT22;2927;49.366;8.530;2023-04-09T14:43:43;16.10;1.00
5802;DHT22;2927;49.366;8.530;2023-04-09T14:46:08;16.20;1.00
5802;DHT22;2927;49.366;8.530;2023-04-09T14:48:37;16.30;1.00
5802;DHT22;2927;49.366;8.530;2023-04-09T14:51:03;16.20;1.00
5802;DHT22;2927;49.366;8.530;2023-04-09T14:53:30;16.20;1.00
5802;DHT22;2927;49.366;8.530;2023-04-09T14:55:55;15.90;1.00
5802;DHT22;2927;49.366;8.530;2023-04-09T14:58:21;16.00;1.00
5802;DHT22;2927;49.366;8.530;2023-04-09T15:00:46;15.90;1.00
5802;DHT22;2927;49.366;8.530;2023-04-09T15:03:13;15.90;1.00
5802;DHT22;2927;49.366;8.530;2023-04-09T15:05:38;16.10;1.00
5802;DHT22;2927;49.366;8.530;2023-04-09T15:08:04;16.10;1.00
5802;DHT22;2927;49.366;8.530;2023-04-09T15:10:29;16.40;1.00
5802;DHT22;2927;49.366;8.530;2023-04-09T15:12:55;16.40;1.00
5802;DHT22;2927;49.366;8.530;2023-04-09T15:15:20;16.30;1.00
5802;DHT22;2927;49.366;8.530;2023-04-09T15:17:46;16.30;1.00
5802;DHT22;2927;49.366;8.530;2023-04-09T15:20:12;16.20;1.00
5802;DHT22;2927;49.366;8.530;2023-04-09T15:22:38;16.40;1.00
5802;DHT22;2927;49.366;8.530;2023-04-09T15:25:04;16.30;1.00
5802;DHT22;2927;49.366;8.530;2023-04-09T15:27:30;16.20;1.00
5802;DHT22;2927;49.366;8.530;2023-04-09T15:29:55;16.20;1.00
5802;DHT22;2927;49.366;8.530;2023-04-09T15:32:21;16.30;1.00
5802;DHT22;2927;49.366;8.530;2023-04-09T15:34:47;16.20;1.00
5802;DHT22;2927;49.366;8.530;2023-04-09T15:37:12;16.30;1.00
5802;DHT22;2927;49.366;8.530;2023-04-09T15:39:38;16.10;1.00
5802;DHT22;2927;49.366;8.530;2023-04-09T15:42:03;16.00;1.00
5802;DHT22;2927;49.366;8.530;2023-04-09T15:44:29;15.80;1.00
5802;DHT22;2927;49.366;8.530;2023-04-09T15:46:54;15.90;1.00
5802;DHT22;2927;49.366;8.530;2023-04-09T15:49:20;16.00;1.00
5802;DHT22;2927;49.366;8.530;2023-04-09T15:51:46;16.10;1.00
5802;DHT22;2927;49.366;8.530;2023-04-09T15:54:12;16.20;1.00
5802;DHT22;2927;49.366;8.530;2023-04-09T15:56:37;16.40;1.00
5802;DHT22;2927;49.366;8.530;2023-04-09T15:59:05;16.60;1.00
5802;DHT22;2927;49.366;8.530;2023-04-09T16:01:32;16.50;1.00
5802;DHT22;2927;49.366;8.530;2023-04-09T16:03:58;16.40;1.00
5802;DHT22;2927;49.366;8.530;2023-04-09T16:06:23;16.20;1.00
5802;DHT22;2927;49.366;8.530;2023-04-09T16:08:49;16.20;1.00
5802;DHT22;2927;49.366;8.530;2023-04-09T16:11:15;16.20;1.00
5802;DHT22;2927;49.366;8.530;2023-04-09T16:13:41;16.20;1.00
5802;DHT22;2927;49.366;8.530;2023-04-09T16:16:07;16.20;1.00
5802;DHT22;2927;49.366;8.530;2023-04-09T16:18:33;16.10;1.00
5802;DHT22;2927;49.366;8.530;2023-04-09T16:20:59;16.10;1.00
5802;DHT22;2927;49.366;8.530;2023-04-09T16:23:25;16.10;1.00